Bovill, Idaho
Current Conditions -  °F | °C
As of 1:53 PM on Tuesday 21 Oct 2014 (Local Time) from KPUW Reporting Station
Overcast Overcast  
Wind Chill: 55°   Ceiling: 3500
Heat Index: 55°   Visibility: 10mi
Dew Point: 39°   Wind: 18mph
Humidity: 55%   Direction: 240°WSW
Pressure: 29.98"   Gusts: 26mph
Location:  46.86°N, 116.39°W
Report Text: KPUW 212053Z AUTO 24016G23KT 10SM BKN035 OVC046 13/04 A2998 RMK AO2 SLP155 T01280039 53006
Loading
Personal Weather Stations






























Interactive Weather Map
Tropical Storm Tracking
New forecast layout! Learn more

10-Day Weather Forecast

Advertisements
Track Severe Weather on mobile